Time;durP1;ratioP1;P1;durP2;ratioP2;P2;SDS_P1;SDS_P2;PMS_P1;PMS_P2;Temp;Humidity;BMP_temperature;BMP_pressure;BME280_temperature;BME280_humidity;BME280_pressure;Samples;Min_cycle;Max_cycle;Signal;HPM_P1;HPM_P2
2023/05/05 00:02:13;;;;;;;6.27;3.10;;;;;;;14.30;100.00;100254.47;4491101;31;34792;-74
2023/05/05 00:04:59;;;;;;;5.85;3.05;;;;;;;14.15;100.00;100246.66;4488753;31;35022;-74
2023/05/05 00:07:46;;;;;;;5.97;3.12;;;;;;;14.30;100.00;100259.19;4489900;31;33377;-74
2023/05/05 00:10:32;;;;;;;6.25;3.05;;;;;;;14.15;100.00;100241.16;4473257;31;32984;-75
2023/05/05 00:13:19;;;;;;;5.90;2.90;;;;;;;14.14;100.00;100245.03;4492940;31;34457;-74
2023/05/05 00:16:06;;;;;;;6.03;3.20;;;;;;;14.11;100.00;100248.41;4480117;31;33734;-75
2023/05/05 00:18:52;;;;;;;5.80;2.78;;;;;;;13.81;100.00;100253.66;4476034;31;33456;-74
2023/05/05 00:21:39;;;;;;;7.70;3.37;;;;;;;13.97;100.00;100245.78;4491887;31;33308;-74
2023/05/05 00:24:25;;;;;;;7.15;3.72;;;;;;;13.85;100.00;100242.81;4474099;31;33785;-74
2023/05/05 00:27:11;;;;;;;5.17;2.80;;;;;;;13.63;100.00;100246.44;4490954;31;34174;-75
2023/05/05 00:29:57;;;;;;;5.90;2.90;;;;;;;13.69;100.00;100240.50;4467233;31;34593;-76
2023/05/05 00:32:46;;;;;;;6.03;2.90;;;;;;;13.76;100.00;100240.03;4476872;31;37300;-75
2023/05/05 00:35:33;;;;;;;5.22;2.95;;;;;;;13.82;100.00;100238.75;4477147;31;34669;-74
2023/05/05 00:38:19;;;;;;;6.37;3.20;;;;;;;13.92;100.00;100234.94;4475299;31;33095;-74
2023/05/05 00:41:06;;;;;;;4.70;2.70;;;;;;;13.79;100.00;100242.16;4491431;31;34459;-74
2023/05/05 00:43:52;;;;;;;5.28;2.83;;;;;;;13.72;100.00;100230.78;4488150;31;32996;-74
2023/05/05 00:46:40;;;;;;;5.83;2.80;;;;;;;13.68;100.00;100235.28;4490649;31;33557;-74
2023/05/05 00:49:26;;;;;;;6.00;2.80;;;;;;;13.41;100.00;100234.38;4486934;31;34142;-74
2023/05/05 00:52:13;;;;;;;5.18;2.60;;;;;;;13.61;100.00;100235.75;4492942;31;33696;-74
2023/05/05 00:54:59;;;;;;;6.72;3.00;;;;;;;13.52;100.00;100229.41;4480695;31;33749;-74
2023/05/05 00:57:46;;;;;;;7.05;3.10;;;;;;;13.47;100.00;100227.59;4489702;31;32777;-74
2023/05/05 01:00:33;;;;;;;6.33;3.10;;;;;;;13.29;100.00;100228.62;4480527;31;34133;-74
2023/05/05 01:03:19;;;;;;;5.47;2.83;;;;;;;13.34;100.00;100222.16;4475281;31;33658;-75
2023/05/05 01:06:35;;;;;;;6.57;2.90;;;;;;;13.18;100.00;100227.25;4491812;31;34207;-74
2023/05/05 01:09:23;;;;;;;4.90;2.80;;;;;;;13.22;100.00;100222.72;4489881;31;34689;-74
2023/05/05 01:12:23;;;;;;;5.95;2.80;;;;;;;13.19;100.00;100226.09;4474236;31;34091;-75
2023/05/05 01:15:20;;;;;;;6.47;3.20;;;;;;;13.09;100.00;100223.59;4491072;31;34339;-74
2023/05/05 01:18:11;;;;;;;5.37;2.95;;;;;;;13.07;100.00;100223.13;4481912;31;34140;-74
2023/05/05 01:21:00;;;;;;;5.22;3.08;;;;;;;13.41;100.00;100223.34;4477162;31;33498;-74
2023/05/05 01:24:25;;;;;;;6.82;3.22;;;;;;;13.40;100.00;100213.44;4482807;31;35670;-74
2023/05/05 01:27:27;;;;;;;5.53;3.00;;;;;;;13.52;100.00;100220.31;4494390;31;33811;-74
2023/05/05 01:30:42;;;;;;;5.67;3.30;;;;;;;13.34;100.00;100217.47;4491251;31;33203;-74
2023/05/05 01:33:34;;;;;;;6.18;3.40;;;;;;;13.47;100.00;100216.59;4492551;31;33727;-74
2023/05/05 01:36:31;;;;;;;8.05;3.78;;;;;;;13.49;100.00;100224.53;4480785;31;35090;-74
2023/05/05 01:39:19;;;;;;;7.25;3.42;;;;;;;13.34;100.00;100220.22;4493830;31;34829;-75
2023/05/05 01:42:08;;;;;;;8.20;3.85;;;;;;;13.46;100.00;100217.72;4492040;31;33651;-74
2023/05/05 01:44:55;;;;;;;6.93;3.85;;;;;;;13.24;100.00;100214.97;4476349;31;33879;-75
2023/05/05 01:47:42;;;;;;;7.05;3.58;;;;;;;13.28;100.00;100219.53;4483143;31;34185;-74
2023/05/05 01:50:29;;;;;;;7.93;3.70;;;;;;;13.31;100.00;100220.84;4465584;31;33608;-74
2023/05/05 01:53:16;;;;;;;8.03;3.47;;;;;;;13.23;100.00;100210.56;4468822;31;33950;-75
2023/05/05 01:56:03;;;;;;;6.03;3.50;;;;;;;13.19;100.00;100215.09;4479237;31;32569;-75
2023/05/05 01:58:50;;;;;;;7.40;3.40;;;;;;;13.34;100.00;100217.47;4490647;31;34571;-75
2023/05/05 02:01:39;;;;;;;6.72;3.50;;;;;;;13.24;100.00;100215.78;4478326;31;32363;-74
2023/05/05 02:04:27;;;;;;;5.82;3.30;;;;;;;13.38;100.00;100207.47;4469280;31;33777;-74
2023/05/05 02:07:15;;;;;;;6.22;3.28;;;;;;;13.22;100.00;100208.97;4481959;31;33442;-74
2023/05/05 02:10:02;;;;;;;7.70;3.50;;;;;;;13.17;100.00;100209.91;4492001;31;34655;-74
2023/05/05 02:12:49;;;;;;;7.00;3.37;;;;;;;13.23;100.00;100213.31;4483363;31;34409;-74
2023/05/05 02:15:37;;;;;;;6.93;3.55;;;;;;;13.20;100.00;100202.94;4478086;31;33319;-74
2023/05/05 02:18:24;;;;;;;7.12;3.80;;;;;;;13.41;100.00;100206.84;4481090;31;33901;-74
2023/05/05 02:21:13;;;;;;;4.72;2.97;;;;;;;13.43;100.00;100212.00;4491273;31;35144;-74
2023/05/05 02:24:02;;;;;;;7.03;3.50;;;;;;;13.39;100.00;100209.09;4479072;31;33345;-74
2023/05/05 02:26:51;;;;;;;8.68;3.47;;;;;;;13.00;100.00;100215.28;4466955;31;32682;-75
2023/05/05 02:29:48;;;;;;;7.40;3.80;;;;;;;12.83;100.00;100213.22;4477767;31;33530;-74
2023/05/05 02:32:38;;;;;;;6.10;3.00;;;;;;;12.89;100.00;100205.66;4471848;31;33641;-74
2023/05/05 02:35:35;;;;;;;7.97;3.47;;;;;;;12.97;100.00;100204.91;4483681;31;33992;-75
2023/05/05 02:38:25;;;;;;;7.25;3.50;;;;;;;12.90;100.00;100210.06;4484288;31;32847;-74
2023/05/05 02:41:17;;;;;;;5.72;3.33;;;;;;;13.09;100.00;100210.69;4476389;31;32714;-74
2023/05/05 02:44:05;;;;;;;5.82;3.40;;;;;;;13.28;100.00;100207.72;4490244;31;35840;-74
2023/05/05 02:46:53;;;;;;;6.55;3.90;;;;;;;13.12;100.00;100203.72;4472098;31;34627;-74
2023/05/05 02:49:41;;;;;;;5.97;3.70;;;;;;;13.08;100.00;100213.72;4482781;31;32916;-74
2023/05/05 02:52:28;;;;;;;6.57;4.07;;;;;;;12.73;100.00;100206.03;4478406;31;33722;-72
2023/05/05 02:55:18;;;;;;;6.72;3.78;;;;;;;12.49;100.00;100214.56;4479803;31;33857;-73
2023/05/05 02:58:08;;;;;;;6.80;4.00;;;;;;;12.58;100.00;100206.41;4473053;31;33814;-74
2023/05/05 03:01:00;;;;;;;6.50;4.07;;;;;;;12.78;100.00;100208.66;4469576;31;32823;-73
2023/05/05 03:04:05;;;;;;;5.72;3.72;;;;;;;12.63;100.00;100210.97;4472682;31;33518;-73
2023/05/05 03:06:58;;;;;;;7.80;4.25;;;;;;;12.78;100.00;100207.88;4470127;31;35108;-73
2023/05/05 03:09:50;;;;;;;7.32;4.03;;;;;;;12.90;100.00;100205.34;4467093;31;33649;-74
2023/05/05 03:12:56;;;;;;;6.30;4.05;;;;;;;12.28;100.00;100214.19;4477645;31;32824;-73
2023/05/05 03:15:45;;;;;;;8.30;4.33;;;;;;;12.23;100.00;100208.00;4465306;31;32656;-73
2023/05/05 03:18:33;;;;;;;6.77;3.83;;;;;;;12.28;100.00;100213.41;4476358;31;32833;-73
2023/05/05 03:21:19;;;;;;;7.00;4.15;;;;;;;12.71;100.00;100210.22;4456798;31;34213;-73
2023/05/05 03:24:17;;;;;;;6.78;4.10;;;;;;;12.52;100.00;100205.72;4469267;31;33257;-73
2023/05/05 03:27:04;;;;;;;8.70;3.97;;;;;;;12.87;100.00;100208.75;4490903;31;33457;-73
2023/05/05 03:29:51;;;;;;;7.57;4.50;;;;;;;12.78;100.00;100210.63;4479831;31;34525;-73
2023/05/05 03:32:37;;;;;;;6.45;3.90;;;;;;;12.75;100.00;100206.53;4468449;31;33507;-73
2023/05/05 03:35:23;;;;;;;7.05;4.50;;;;;;;12.60;100.00;100204.94;4474267;31;33491;-73
2023/05/05 03:38:10;;;;;;;7.15;4.03;;;;;;;12.33;100.00;100218.78;4476650;31;33833;-73
2023/05/05 03:41:01;;;;;;;7.85;4.25;;;;;;;12.84;100.00;100214.88;4478971;31;33528;-73
2023/05/05 03:43:47;;;;;;;6.78;4.50;;;;;;;12.48;100.00;100212.12;4473256;31;33103;-74
2023/05/05 03:46:34;;;;;;;7.53;4.30;;;;;;;12.22;100.00;100220.13;4487148;31;33387;-73
2023/05/05 03:49:22;;;;;;;6.68;4.20;;;;;;;12.01;100.00;100214.22;4487987;31;35304;-73
2023/05/05 03:52:08;;;;;;;6.57;4.32;;;;;;;12.37;100.00;100217.03;4473641;31;34150;-73
2023/05/05 03:54:56;;;;;;;7.90;4.40;;;;;;;12.56;100.00;100214.94;4491096;31;33670;-73
2023/05/05 03:57:44;;;;;;;7.05;4.05;;;;;;;12.19;100.00;100221.56;4490307;31;33419;-73
2023/05/05 04:00:31;;;;;;;7.43;4.37;;;;;;;12.74;100.00;100220.59;4488812;31;33907;-73
2023/05/05 04:03:17;;;;;;;7.25;4.12;;;;;;;12.45;100.00;100232.78;4489454;31;35651;-73
2023/05/05 04:06:04;;;;;;;7.40;4.22;;;;;;;12.56;100.00;100231.44;4488304;31;33704;-73
2023/05/05 04:08:52;;;;;;;7.63;4.10;;;;;;;12.28;100.00;100232.63;4493091;31;33402;-73
2023/05/05 04:11:38;;;;;;;7.17;4.07;;;;;;;12.83;100.00;100232.47;4489383;31;33445;-73
2023/05/05 04:14:25;;;;;;;7.30;4.20;;;;;;;12.51;100.00;100228.00;4486165;31;32941;-73
2023/05/05 04:17:11;;;;;;;9.00;4.55;;;;;;;12.70;100.00;100231.41;4488209;31;32884;-73
2023/05/05 04:19:57;;;;;;;7.72;4.05;;;;;;;11.84;100.00;100231.28;4494069;31;33015;-73
2023/05/05 04:22:44;;;;;;;8.07;4.80;;;;;;;12.35;100.00;100235.75;4491484;31;34769;-73
2023/05/05 04:25:31;;;;;;;9.60;4.83;;;;;;;12.26;100.00;100232.12;4464023;31;35082;-73
2023/05/05 04:28:19;;;;;;;9.70;5.00;;;;;;;12.57;100.00;100227.56;4494107;31;33564;-73
2023/05/05 04:31:07;;;;;;;8.15;4.50;;;;;;;12.06;100.00;100236.09;4490864;31;34103;-73
2023/05/05 04:33:54;;;;;;;8.82;4.97;;;;;;;11.35;100.00;100235.50;4487011;31;33990;-76
2023/05/05 04:36:40;;;;;;;8.38;4.93;;;;;;;10.66;100.00;100244.28;4488239;31;34095;-75
2023/05/05 04:39:26;;;;;;;8.68;4.82;;;;;;;10.12;100.00;100248.28;4490517;31;34015;-75
2023/05/05 04:42:12;;;;;;;7.87;4.30;;;;;;;11.25;100.00;100237.31;4493572;31;33115;-74
2023/05/05 04:44:59;;;;;;;7.28;4.12;;;;;;;11.75;100.00;100239.41;4485396;31;35320;-75
2023/05/05 04:47:48;;;;;;;9.18;4.80;;;;;;;12.23;100.00;100232.72;4490591;31;34784;-75
2023/05/05 04:50:34;;;;;;;8.43;4.77;;;;;;;12.49;100.00;100247.53;4486773;31;33378;-75
2023/05/05 04:53:20;;;;;;;9.53;5.27;;;;;;;10.79;100.00;100251.78;4475960;31;33382;-75
2023/05/05 04:56:07;;;;;;;8.37;5.13;;;;;;;10.97;100.00;100252.88;4492191;31;33814;-75
2023/05/05 04:58:53;;;;;;;8.80;4.83;;;;;;;11.52;100.00;100251.41;4489554;31;35199;-75
2023/05/05 05:01:40;;;;;;;8.57;4.53;;;;;;;12.26;100.00;100248.59;4486217;31;34670;-75
2023/05/05 05:04:26;;;;;;;11.00;4.50;;;;;;;12.49;100.00;100252.22;4480339;31;34313;-74
2023/05/05 05:07:15;;;;;;;6.78;4.53;;;;;;;12.86;100.00;100251.09;4489214;31;33554;-76
2023/05/05 05:10:03;;;;;;;7.63;4.83;;;;;;;13.05;100.00;100251.72;4489774;31;35184;-75
2023/05/05 05:12:49;;;;;;;9.48;4.82;;;;;;;12.47;100.00;100251.75;4486277;31;33414;-75
2023/05/05 05:15:37;;;;;;;8.55;5.15;;;;;;;10.63;100.00;100261.34;4486963;31;34257;-75
2023/05/05 05:18:23;;;;;;;9.53;5.07;;;;;;;11.54;100.00;100265.62;4486293;31;36214;-75
2023/05/05 05:21:09;;;;;;;7.95;4.72;;;;;;;11.87;100.00;100259.00;4487705;31;33758;-74
2023/05/05 05:23:56;;;;;;;8.45;4.75;;;;;;;11.79;100.00;100262.44;4464624;31;34815;-75
2023/05/05 05:26:43;;;;;;;9.20;4.62;;;;;;;12.24;100.00;100259.06;4461056;31;32458;-75
2023/05/05 05:29:30;;;;;;;9.68;5.03;;;;;;;13.08;100.00;100257.75;4485045;31;34674;-75
2023/05/05 05:32:17;;;;;;;8.20;4.93;;;;;;;12.26;100.00;100262.34;4489071;31;33648;-75
2023/05/05 05:35:04;;;;;;;7.78;4.20;;;;;;;13.13;100.00;100268.63;4486989;31;32555;-73
2023/05/05 05:37:51;;;;;;;7.40;3.40;;;;;;;13.52;100.00;100267.94;4490536;31;34218;-73
2023/05/05 05:40:38;;;;;;;7.37;3.50;;;;;;;14.10;100.00;100266.91;4466117;31;33458;-75
2023/05/05 05:43:24;;;;;;;7.80;3.50;;;;;;;14.15;100.00;100279.72;4492929;31;34248;-75
2023/05/05 05:46:11;;;;;;;7.32;3.85;;;;;;;13.53;100.00;100272.31;4472792;31;34238;-75
2023/05/05 05:48:58;;;;;;;6.90;3.67;;;;;;;14.23;100.00;100273.44;4489846;31;34126;-74
2023/05/05 05:51:44;;;;;;;7.95;3.62;;;;;;;14.97;100.00;100278.13;4491085;31;33541;-74
2023/05/05 05:54:33;;;;;;;6.82;3.50;;;;;;;15.07;94.98;100279.72;4490382;31;35204;-75
2023/05/05 05:57:21;;;;;;;6.53;3.35;;;;;;;14.29;98.03;100279.62;4490941;31;33375;-75
2023/05/05 06:00:08;;;;;;;7.10;3.40;;;;;;;14.67;99.43;100279.06;4486284;31;34682;-74
2023/05/05 06:02:56;;;;;;;7.62;4.00;;;;;;;15.19;88.00;100279.06;4472032;31;34379;-74
2023/05/05 06:05:45;;;;;;;5.57;3.42;;;;;;;15.15;92.47;100280.87;4495179;31;33713;-75
2023/05/05 06:08:31;;;;;;;8.40;3.80;;;;;;;15.74;85.25;100279.16;4493891;31;35233;-75
2023/05/05 06:11:18;;;;;;;8.57;3.83;;;;;;;15.49;90.78;100283.56;4491189;31;33103;-74
2023/05/05 06:14:04;;;;;;;8.95;4.07;;;;;;;15.61;88.04;100274.59;4492876;31;33223;-74
2023/05/05 06:16:51;;;;;;;8.77;4.10;;;;;;;14.67;96.48;100276.31;4493442;31;34640;-74
2023/05/05 06:19:38;;;;;;;9.07;3.80;;;;;;;14.90;93.29;100282.50;4489911;31;34937;-75
2023/05/05 06:22:25;;;;;;;7.53;4.35;;;;;;;15.49;92.09;100280.00;4495496;31;33537;-75
2023/05/05 06:25:11;;;;;;;9.73;4.32;;;;;;;15.72;88.63;100264.84;4489303;31;33506;-74
2023/05/05 06:27:58;;;;;;;7.82;4.20;;;;;;;15.49;90.70;100271.72;4493623;31;35061;-74
2023/05/05 06:30:44;;;;;;;7.93;4.28;;;;;;;15.77;89.13;100265.78;4495586;31;33125;-74
2023/05/05 06:33:31;;;;;;;10.52;4.47;;;;;;;16.16;86.44;100259.94;4489364;31;33234;-74
2023/05/05 06:36:17;;;;;;;10.85;4.53;;;;;;;15.95;88.34;100257.13;4491182;31;33492;-75
2023/05/05 06:39:04;;;;;;;10.35;4.53;;;;;;;16.34;86.19;100259.84;4492236;31;33657;-74
2023/05/05 06:41:50;;;;;;;9.80;4.80;;;;;;;16.75;80.93;100266.56;4495434;31;33774;-74
2023/05/05 06:44:36;;;;;;;8.68;4.65;;;;;;;16.55;85.48;100263.44;4491987;31;34325;-74
2023/05/05 06:47:22;;;;;;;8.83;4.50;;;;;;;16.17;87.85;100261.56;4494062;31;34823;-74
2023/05/05 06:50:09;;;;;;;9.25;4.30;;;;;;;16.73;82.58;100257.78;4480510;31;33623;-74
2023/05/05 06:52:56;;;;;;;7.47;3.60;;;;;;;17.00;83.38;100262.81;4493283;31;34276;-75
2023/05/05 06:55:44;;;;;;;8.20;4.15;;;;;;;16.72;79.18;100259.75;4493472;31;34256;-75
2023/05/05 06:58:30;;;;;;;9.10;4.23;;;;;;;16.50;80.60;100260.87;4471195;31;34725;-75
2023/05/05 07:01:17;;;;;;;9.00;4.10;;;;;;;17.09;80.63;100260.78;4473910;31;33592;-74
2023/05/05 07:04:03;;;;;;;8.70;4.40;;;;;;;17.30;75.92;100259.91;4492429;31;34587;-74
2023/05/05 07:06:49;;;;;;;8.97;4.07;;;;;;;16.81;79.93;100260.53;4489793;31;33251;-74
2023/05/05 07:09:35;;;;;;;9.02;4.07;;;;;;;17.16;79.17;100251.09;4479542;31;34433;-74
2023/05/05 07:12:22;;;;;;;9.23;4.25;;;;;;;17.03;81.55;100262.12;4489804;31;34119;-73
2023/05/05 07:15:08;;;;;;;7.97;4.20;;;;;;;17.18;79.25;100262.66;4490352;31;34035;-75
2023/05/05 07:18:09;;;;;;;8.13;4.53;;;;;;;16.94;78.51;100264.19;4495366;31;34043;-71
2023/05/05 07:20:55;;;;;;;8.43;4.20;;;;;;;17.79;75.78;100262.03;4496056;31;33741;-72
2023/05/05 07:23:42;;;;;;;8.80;4.05;;;;;;;18.12;72.70;100261.94;4494689;31;35089;-72
2023/05/05 07:26:28;;;;;;;7.80;4.80;;;;;;;17.26;77.23;100262.56;4493583;31;34581;-73
2023/05/05 07:29:15;;;;;;;6.95;4.40;;;;;;;17.70;76.98;100259.34;4480288;31;32887;-80
2023/05/05 07:32:01;;;;;;;7.75;4.32;;;;;;;17.39;75.87;100246.81;4487770;31;33771;-81
2023/05/05 07:34:47;;;;;;;9.07;4.28;;;;;;;17.92;79.17;100261.69;4489422;31;33837;-77
2023/05/05 07:37:34;;;;;;;7.50;4.55;;;;;;;17.77;77.11;100256.81;4484816;31;34536;-77
2023/05/05 07:40:20;;;;;;;8.03;4.20;;;;;;;18.27;78.28;100264.03;4490068;31;33304;-77
2023/05/05 07:43:07;;;;;;;8.63;4.60;;;;;;;18.29;75.79;100267.25;4483279;31;33875;-78
2023/05/05 07:45:54;;;;;;;8.27;4.30;;;;;;;18.39;72.37;100266.81;4472359;31;34134;-77
2023/05/05 07:48:40;;;;;;;7.22;4.43;;;;;;;18.90;77.80;100262.78;4482900;31;33749;-76
2023/05/05 07:51:27;;;;;;;8.68;4.80;;;;;;;18.99;71.30;100266.25;4496028;31;32825;-77
2023/05/05 07:54:13;;;;;;;12.48;5.37;;;;;;;19.18;70.86;100268.34;4494785;31;34355;-77
2023/05/05 07:57:00;;;;;;;8.25;4.72;;;;;;;17.74;71.61;100269.41;4495825;31;34163;-76
2023/05/05 07:59:46;;;;;;;7.05;4.00;;;;;;;18.47;75.52;100264.22;4495119;31;33412;-77
2023/05/05 08:02:32;;;;;;;7.72;4.37;;;;;;;18.50;76.16;100257.97;4495702;31;34313;-77
2023/05/05 08:05:19;;;;;;;7.72;4.35;;;;;;;18.65;76.88;100257.28;4483760;31;33322;-77
2023/05/05 08:08:05;;;;;;;8.95;4.80;;;;;;;18.85;76.99;100261.06;4495763;31;34189;-77
2023/05/05 08:10:52;;;;;;;9.05;4.97;;;;;;;19.73;72.19;100267.50;4483334;31;33487;-77
2023/05/05 08:13:38;;;;;;;8.25;4.62;;;;;;;19.93;69.89;100262.06;4495513;31;34832;-78
2023/05/05 08:16:24;;;;;;;10.97;4.60;;;;;;;20.15;69.24;100255.84;4495723;31;34835;-78
2023/05/05 08:19:11;;;;;;;6.97;4.60;;;;;;;19.70;70.29;100264.66;4496041;31;34110;-77
2023/05/05 08:22:14;;;;;;;8.80;5.57;;;;;;;19.76;70.86;100255.69;4495642;31;34655;-77
2023/05/05 08:25:00;;;;;;;8.98;5.30;;;;;;;20.07;68.02;100256.03;4495272;31;34227;-77
2023/05/05 08:27:48;;;;;;;11.43;5.07;;;;;;;18.85;74.29;100261.06;4483743;31;33756;-77
2023/05/05 08:30:35;;;;;;;9.52;5.43;;;;;;;19.48;70.74;100258.47;4495481;31;34265;-77
2023/05/05 08:33:21;;;;;;;9.05;5.55;;;;;;;20.48;71.32;100257.41;4495707;31;34611;-77
2023/05/05 08:36:07;;;;;;;7.80;5.35;;;;;;;20.25;69.94;100257.28;4472308;31;34155;-77
2023/05/05 08:38:54;;;;;;;10.02;6.03;;;;;;;20.97;66.05;100262.47;4495470;31;33396;-77
2023/05/05 08:41:40;;;;;;;10.48;5.95;;;;;;;19.28;67.28;100265.88;4495182;31;34148;-77
2023/05/05 08:44:27;;;;;;;8.73;5.95;;;;;;;20.64;67.67;100255.41;4483581;31;33261;-78
2023/05/05 08:47:14;;;;;;;9.20;6.03;;;;;;;20.43;65.77;100258.50;4483624;31;32767;-77
2023/05/05 08:50:01;;;;;;;9.55;6.30;;;;;;;20.27;67.06;100260.50;4495578;31;34866;-77
2023/05/05 08:53:01;;;;;;;8.13;5.85;;;;;;;19.90;66.96;100258.03;4483206;31;34750;-77
2023/05/05 08:55:51;;;;;;;11.95;5.93;;;;;;;20.00;67.43;100251.91;4494965;31;34642;-77
2023/05/05 08:58:37;;;;;;;9.10;5.55;;;;;;;18.74;71.46;100255.19;4483302;31;33176;-77
2023/05/05 09:01:24;;;;;;;7.12;4.70;;;;;;;18.90;72.05;100251.66;4495109;31;33783;-77
2023/05/05 09:04:10;;;;;;;8.48;5.37;;;;;;;20.36;70.49;100249.19;4482939;31;34133;-77
2023/05/05 09:06:57;;;;;;;9.00;5.00;;;;;;;20.23;66.86;100245.69;4495056;31;34064;-77
2023/05/05 09:09:43;;;;;;;10.13;5.60;;;;;;;21.19;66.19;100246.19;4495341;31;32355;-77
2023/05/05 09:12:30;;;;;;;10.10;6.10;;;;;;;20.88;67.46;100242.38;4483300;31;33818;-77
2023/05/05 09:15:16;;;;;;;9.10;6.25;;;;;;;21.11;65.58;100240.47;4482033;31;34104;-77
2023/05/05 09:18:05;;;;;;;10.38;5.87;;;;;;;20.75;64.16;100238.13;4495373;31;33768;-77
2023/05/05 09:20:51;;;;;;;9.05;5.95;;;;;;;20.87;63.52;100243.56;4495293;31;33395;-77
2023/05/05 09:23:38;;;;;;;9.45;6.07;;;;;;;20.44;65.10;100237.03;4494971;31;34493;-77
2023/05/05 09:26:24;;;;;;;7.97;5.37;;;;;;;20.55;62.86;100235.34;4494827;31;32965;-77
2023/05/05 09:29:21;;;;;;;8.27;5.78;;;;;;;21.22;62.13;100228.75;4494696;31;33353;-77
2023/05/05 09:32:07;;;;;;;8.40;5.12;;;;;;;20.26;62.74;100222.69;4494781;31;33300;-77
2023/05/05 09:34:59;;;;;;;10.43;5.20;;;;;;;21.29;60.74;100223.31;4494391;31;34408;-78
2023/05/05 09:37:45;;;;;;;8.38;5.30;;;;;;;20.84;60.72;100217.25;4496878;31;34023;-77
2023/05/05 09:40:44;;;;;;;7.82;5.55;;;;;;;21.69;62.06;100219.28;4496718;31;33761;-77
2023/05/05 09:43:49;;;;;;;8.65;5.43;;;;;;;20.02;64.54;100218.19;4496785;31;32949;-78
2023/05/05 09:46:35;;;;;;;7.05;4.95;;;;;;;20.47;63.15;100210.47;4484814;31;34825;-77
2023/05/05 09:49:24;;;;;;;8.85;4.60;;;;;;;21.87;59.31;100212.00;4496969;31;34092;-77
2023/05/05 09:52:14;;;;;;;7.53;5.37;;;;;;;21.28;60.29;100213.31;4496234;31;33344;-77
2023/05/05 09:55:00;;;;;;;7.70;5.43;;;;;;;20.98;58.53;100205.59;4484875;31;33309;-77
2023/05/05 09:57:47;;;;;;;9.35;5.40;;;;;;;21.08;58.32;100201.41;4496946;31;33581;-77
2023/05/05 10:00:38;;;;;;;8.00;4.95;;;;;;;20.05;62.66;100200.75;4496429;31;34085;-77
2023/05/05 10:03:25;;;;;;;8.23;5.37;;;;;;;21.73;59.16;100200.63;4484514;31;33987;-77
2023/05/05 10:06:11;;;;;;;6.93;4.62;;;;;;;20.26;62.11;100194.06;4496397;31;33454;-77
2023/05/05 10:09:01;;;;;;;7.00;4.70;;;;;;;21.08;60.39;100202.19;4496537;31;33751;-77
2023/05/05 10:11:47;;;;;;;8.27;5.00;;;;;;;21.41;58.83;100188.91;4485378;31;33611;-77
2023/05/05 10:14:34;;;;;;;8.48;5.55;;;;;;;21.96;56.26;100192.22;4479638;31;33746;-78
2023/05/05 10:17:22;;;;;;;8.30;5.50;;;;;;;21.83;56.00;100191.62;4462698;31;34269;-82
2023/05/05 10:20:09;;;;;;;8.32;5.05;;;;;;;22.02;54.67;100183.16;4490405;31;32818;-81
2023/05/05 10:22:56;;;;;;;7.32;5.12;;;;;;;21.18;55.61;100191.66;4482266;31;33656;-81
2023/05/05 10:25:50;;;;;;;7.62;5.00;;;;;;;21.07;56.29;100188.66;4482276;31;34597;-81
2023/05/05 10:28:46;;;;;;;7.65;4.37;;;;;;;22.07;53.53;100184.81;4491033;31;33827;-81
2023/05/05 10:31:42;;;;;;;7.80;4.45;;;;;;;23.08;54.90;100182.22;4485506;31;33795;-79
2023/05/05 10:34:38;;;;;;;9.30;4.35;;;;;;;23.02;51.58;100180.13;4478456;31;35067;-79
2023/05/05 10:37:26;;;;;;;9.18;5.85;;;;;;;22.25;55.63;100165.56;4482391;31;33726;-79
2023/05/05 10:40:13;;;;;;;8.83;5.60;;;;;;;22.08;52.45;100168.88;4477399;31;33214;-79
2023/05/05 10:43:00;;;;;;;10.07;5.32;;;;;;;21.70;54.69;100159.53;4483154;31;33371;-79
2023/05/05 10:45:47;;;;;;;9.43;5.80;;;;;;;22.05;55.63;100162.06;4491208;31;34152;-79
2023/05/05 10:48:35;;;;;;;7.60;5.20;;;;;;;20.81;55.43;100156.72;4487578;31;35149;-79
2023/05/05 10:51:31;;;;;;;7.05;4.85;;;;;;;21.30;58.48;100153.25;4490627;31;32821;-80
2023/05/05 10:54:45;;;;;;;8.45;5.68;;;;;;;22.25;56.81;100151.63;4479426;31;34411;-79
2023/05/05 10:57:35;;;;;;;7.80;5.60;;;;;;;23.10;50.85;100151.06;4495589;31;34166;-79
2023/05/05 11:00:37;;;;;;;8.80;4.97;;;;;;;22.42;54.10;100142.66;4479885;31;33502;-79
2023/05/05 11:03:24;;;;;;;7.40;4.73;;;;;;;22.75;52.39;100141.09;4482950;31;34459;-79
2023/05/05 11:06:11;;;;;;;8.15;5.60;;;;;;;23.23;52.34;100134.84;4494962;31;33947;-78
2023/05/05 11:09:26;;;;;;;7.25;5.10;;;;;;;22.23;52.55;100131.66;4483472;31;35154;-78
2023/05/05 11:12:14;;;;;;;7.80;4.90;;;;;;;22.29;53.22;100130.16;4471614;31;34534;-78
2023/05/05 11:15:21;;;;;;;7.93;4.90;;;;;;;23.50;51.19;100132.69;4495338;31;34428;-78
2023/05/05 11:18:28;;;;;;;8.63;5.85;;;;;;;24.12;51.81;100124.34;4489581;31;33682;-78
2023/05/05 11:21:15;;;;;;;9.20;5.40;;;;;;;24.15;50.99;100120.78;4492608;31;33745;-77
2023/05/05 11:24:32;;;;;;;10.52;6.15;;;;;;;23.83;52.89;100119.78;4494853;31;33375;-78
2023/05/05 11:27:18;;;;;;;7.40;5.45;;;;;;;24.97;49.36;100114.72;4474984;31;33229;-77
2023/05/05 11:30:06;;;;;;;9.23;5.50;;;;;;;24.17;50.49;100114.78;4476256;31;33354;-80
2023/05/05 11:33:24;;;;;;;8.20;5.28;;;;;;;25.10;47.45;100101.94;4493866;31;33853;-80
2023/05/05 11:36:12;;;;;;;8.80;5.43;;;;;;;25.46;46.31;100098.34;4479048;31;32626;-81
2023/05/05 11:39:01;;;;;;;9.63;5.68;;;;;;;24.05;49.21;100104.72;4478282;31;34323;-80
2023/05/05 11:41:58;;;;;;;10.77;5.93;;;;;;;24.76;46.90;100101.47;4466872;31;33400;-80
2023/05/05 11:44:44;;;;;;;9.32;5.20;;;;;;;25.27;47.84;100099.53;4482403;31;33955;-80
2023/05/05 11:47:31;;;;;;;7.50;5.53;;;;;;;25.74;45.98;100089.13;4491940;31;32500;-80
2023/05/05 11:50:18;;;;;;;10.30;6.03;;;;;;;25.91;46.35;100076.28;4479433;31;32887;-81
2023/05/05 11:53:06;;;;;;;8.20;5.50;;;;;;;26.75;42.63;100087.59;4477967;31;32709;-82
2023/05/05 11:56:06;;;;;;;8.80;5.47;;;;;;;25.92;43.39;100078.66;4494943;31;34692;-81
2023/05/05 11:59:09;;;;;;;7.93;5.50;;;;;;;25.71;42.79;100081.50;4493236;31;34931;-81
2023/05/05 12:01:55;;;;;;;8.27;5.43;;;;;;;25.81;43.98;100077.87;4480484;31;32284;-81
2023/05/05 12:04:42;;;;;;;8.90;5.40;;;;;;;25.47;44.37;100074.69;4496226;31;33799;-80
2023/05/05 12:07:30;;;;;;;10.23;6.33;;;;;;;25.11;45.08;100080.28;4494963;31;34096;-80
2023/05/05 12:10:22;;;;;;;7.30;5.43;;;;;;;25.74;42.14;100069.47;4479376;31;35081;-80
2023/05/05 12:13:20;;;;;;;8.65;5.57;;;;;;;26.09;43.03;100070.63;4495406;31;34197;-80
2023/05/05 12:16:17;;;;;;;8.63;5.62;;;;;;;25.74;42.89;100058.25;4492442;31;34766;-81
2023/05/05 12:19:07;;;;;;;7.87;5.77;;;;;;;23.78;45.00;100067.78;4489295;31;34078;-81
2023/05/05 12:21:53;;;;;;;9.10;6.23;;;;;;;21.73;51.82;100066.75;4495684;31;33885;-81
2023/05/05 12:24:40;;;;;;;9.82;5.68;;;;;;;22.52;50.36;100062.22;4494641;31;33969;-81
2023/05/05 12:27:27;;;;;;;10.18;5.25;;;;;;;23.65;51.78;100058.88;4481613;31;34356;-80
2023/05/05 12:30:17;;;;;;;9.75;5.93;;;;;;;24.27;48.81;100052.44;4490838;31;34820;-81
2023/05/05 12:33:05;;;;;;;8.70;6.13;;;;;;;25.50;48.07;100057.06;4453721;31;785301;-81
2023/05/05 12:35:52;;;;;;;7.15;5.30;;;;;;;25.99;44.71;100050.59;4474706;31;32937;-81
2023/05/05 12:38:38;;;;;;;7.55;5.40;;;;;;;25.53;44.37;100051.47;4486319;31;33328;-82
2023/05/05 12:41:24;;;;;;;9.20;5.70;;;;;;;25.93;41.73;100049.41;4483679;31;33834;-81
2023/05/05 12:44:11;;;;;;;7.25;5.20;;;;;;;26.11;41.53;100040.91;4478410;31;33207;-82
2023/05/05 12:46:58;;;;;;;9.40;5.20;;;;;;;26.26;41.86;100041.66;4462864;31;33898;-81
2023/05/05 12:49:49;;;;;;;8.85;5.47;;;;;;;26.98;42.51;100046.87;4492314;31;33432;-81
2023/05/05 12:52:43;;;;;;;9.05;5.68;;;;;;;26.94;43.29;100049.72;4492893;31;34057;-81
2023/05/05 12:55:36;;;;;;;8.00;5.85;;;;;;;27.13;42.65;100042.75;4453823;31;32874;-82
2023/05/05 12:58:23;;;;;;;9.13;5.25;;;;;;;27.06;40.22;100043.59;4486958;31;33344;-81
2023/05/05 13:01:10;;;;;;;9.57;6.12;;;;;;;27.71;40.05;100032.59;4485920;31;33995;-81
2023/05/05 13:04:03;;;;;;;8.77;5.60;;;;;;;27.51;40.79;100028.78;4493289;31;34310;-82